Terminal Aerodrome Forecast
Issued by NWS Louisville, KY

Home | Current Version | Previous Version | Text Only | Print | Product List | Glossary On
Versions: 1 2 3 4 5 6 7 8 9 10 11 12 13 14 15 16 17 18 19 20 21 22 23
000
FTUS43 KLMK 171728
TAFLEX
TAF
KLEX 171728Z 1718/1818 23013G20KT P6SM SCT025 BKN040
     FM172200 22013G21KT P6SM -SHRA VCTS SCT025CB BKN090
      TEMPO 1722/1802 3SM TSRA BKN035CB
     FM180200 21008KT P6SM VCSH SCT020 BKN140
     FM180700 23006KT 6SM BR FEW008 BKN012
     FM181300 25005KT P6SM SCT015=

USA.gov is the U.S. government's official web portal to all federal, state and local government web resources and services.